Terminal Aerodrome Forecast
Issued by NWS

Home | Current Version | Previous Version | Graphics & Text | Print | Product List | Glossary On
Versions: 1 2 3 4 5 6 7 8 9 10 11 12 13 14 15 16 17 18 19 20 21 22 23 24
685
FTUS45 KGGW 281138
TAFGDV
TAF
KGDV 281138Z 2812/2912 05006KT 6SM BR OVC003
     FM281500 08008KT P6SM VCSH BKN012
     FM281800 08008KT P6SM VCTS BKN035CB
     FM282100 09008KT P6SM VCSH BKN040 PROB30 2821/2824 6SM TS
      OVC025CB
     FM290000 09008KT P6SM SCT050
     FM290900 12004KT P6SM SCT110=

USA.gov is the U.S. government's official web portal to all federal, state and local government web resources and services.